createdAt,value
2023-03-24T00:00:14.298Z,6.96
2023-03-24T00:02:43.392Z,6.52
2023-03-24T00:05:12.554Z,6.28
2023-03-24T00:07:40.451Z,6.55
2023-03-24T00:10:20.530Z,6.58
2023-03-24T00:12:48.715Z,6.19
2023-03-24T00:15:19.238Z,6.28
2023-03-24T00:17:50.451Z,6.39
2023-03-24T00:20:20.391Z,6.35
2023-03-24T00:22:51.364Z,6.41
2023-03-24T00:25:20.524Z,6.38
2023-03-24T00:27:51.321Z,6.28
2023-03-24T00:30:19.692Z,6.63
2023-03-24T00:32:47.299Z,6.75
2023-03-24T00:35:16.529Z,6.33
2023-03-24T00:37:44.798Z,6.01
2023-03-24T00:40:17.287Z,5.99
2023-03-24T00:42:46.303Z,5.74
2023-03-24T00:45:20.011Z,5.41
2023-03-24T00:47:50.349Z,5.27
2023-03-24T00:50:20.750Z,5.01
2023-03-24T00:52:49.254Z,4.89
2023-03-24T00:55:17.118Z,4.88
2023-03-24T00:57:51.251Z,4.86
2023-03-24T01:00:24.275Z,5.02
2023-03-24T01:02:55.650Z,5.37
2023-03-24T01:05:28.703Z,5.70
2023-03-24T01:07:58.303Z,5.48
2023-03-24T01:10:30.277Z,5.79
2023-03-24T01:13:00.195Z,5.90
2023-03-24T01:15:33.688Z,5.83
2023-03-24T01:18:04.552Z,5.63
2023-03-24T01:20:33.581Z,5.53
2023-03-24T01:23:02.475Z,5.14
2023-03-24T01:25:30.686Z,4.62
2023-03-24T01:27:57.840Z,4.49
2023-03-24T01:30:28.806Z,4.24
2023-03-24T01:32:57.752Z,4.02
2023-03-24T01:35:28.942Z,4.36
2023-03-24T01:37:59.257Z,4.54
2023-03-24T01:40:29.654Z,4.83
2023-03-24T01:42:57.958Z,4.84
2023-03-24T01:45:54.120Z,4.59
2023-03-24T01:48:27.223Z,4.79
2023-03-24T01:51:06.137Z,4.55
2023-03-24T01:53:36.729Z,4.37
2023-03-24T01:56:06.957Z,4.40
2023-03-24T01:58:43.939Z,4.32
2023-03-24T02:01:19.360Z,4.45
2023-03-24T02:04:04.065Z,4.55
2023-03-24T02:06:34.655Z,4.26
2023-03-24T02:09:03.871Z,4.07
2023-03-24T02:11:34.246Z,3.99
2023-03-24T02:14:07.286Z,3.96
2023-03-24T02:17:04.119Z,3.85
2023-03-24T02:20:21.560Z,3.91
2023-03-24T02:22:58.645Z,3.84
2023-03-24T02:26:12.607Z,4.26
2023-03-24T02:28:52.229Z,4.52
2023-03-24T02:31:41.809Z,4.36
2023-03-24T02:34:33.580Z,4.37
2023-03-24T02:37:21.434Z,4.48
2023-03-24T02:40:00.698Z,4.59
2023-03-24T02:42:39.869Z,4.36
2023-03-24T02:45:24.131Z,4.24
2023-03-24T02:48:03.300Z,4.11
2023-03-24T02:50:50.109Z,4.28
2023-03-24T02:53:55.885Z,3.86
2023-03-24T02:56:39.147Z,3.94
2023-03-24T02:59:32.102Z,4.02
2023-03-24T03:02:10.988Z,3.78
2023-03-24T03:04:46.492Z,3.78
2023-03-24T03:07:17.096Z,3.75
2023-03-24T03:09:52.163Z,3.48
2023-03-24T03:12:23.009Z,3.51
2023-03-24T03:15:03.348Z,3.70
2023-03-24T03:17:38.986Z,3.73
2023-03-24T03:20:20.822Z,3.49
2023-03-24T03:22:58.107Z,3.64
2023-03-24T03:25:33.283Z,3.86
2023-03-24T03:28:04.953Z,3.78
2023-03-24T03:30:40.106Z,3.72
2023-03-24T03:33:18.216Z,4.15
2023-03-24T03:35:56.442Z,4.36
2023-03-24T03:38:53.222Z,4.55
2023-03-24T03:41:21.340Z,4.56
2023-03-24T03:43:50.665Z,4.65
2023-03-24T03:46:18.685Z,4.80
2023-03-24T03:48:46.921Z,4.90
2023-03-24T03:51:15.360Z,4.77
2023-03-24T03:54:10.679Z,4.64
2023-03-24T03:56:38.818Z,4.67
2023-03-24T03:59:30.753Z,4.46
2023-03-24T04:02:09.404Z,4.41
2023-03-24T04:05:05.584Z,4.65
2023-03-24T04:08:06.482Z,4.53
2023-03-24T04:11:08.557Z,4.06
2023-03-24T04:14:25.644Z,4.36
2023-03-24T04:17:46.104Z,4.86
2023-03-24T04:20:48.506Z,4.39
2023-03-24T04:23:18.541Z,4.36
2023-03-24T04:26:01.683Z,4.25
2023-03-24T04:28:41.210Z,4.00
2023-03-24T04:31:34.361Z,3.71
2023-03-24T04:34:10.391Z,3.73
2023-03-24T04:36:54.731Z,4.10
2023-03-24T04:39:39.179Z,4.22
2023-03-24T04:42:36.142Z,4.09
2023-03-24T04:45:06.225Z,4.64
2023-03-24T04:47:58.858Z,4.65
2023-03-24T04:50:57.592Z,5.07
2023-03-24T04:53:27.466Z,5.46
2023-03-24T04:56:21.581Z,5.43
2023-03-24T04:58:59.950Z,5.91
2023-03-24T05:01:31.137Z,6.08
2023-03-24T05:04:29.801Z,6.16
2023-03-24T05:07:02.391Z,5.95
2023-03-24T05:09:31.724Z,6.49
2023-03-24T05:12:01.792Z,7.56
2023-03-24T05:14:32.840Z,8.76
2023-03-24T05:17:00.550Z,8.81
2023-03-24T05:19:28.926Z,9.37
2023-03-24T05:21:56.631Z,9.73
2023-03-24T05:24:23.885Z,9.94
2023-03-24T05:26:51.058Z,9.93
2023-03-24T05:29:20.547Z,9.88
2023-03-24T05:31:48.417Z,9.86
2023-03-24T05:34:17.693Z,8.71
2023-03-24T05:37:01.128Z,8.28
2023-03-24T05:39:28.501Z,8.06
2023-03-24T05:42:06.198Z,8.15
2023-03-24T05:44:33.314Z,8.19
2023-03-24T05:47:05.521Z,8.54
2023-03-24T05:49:32.934Z,9.26
2023-03-24T05:52:01.494Z,10.40
2023-03-24T05:54:28.742Z,11.93
2023-03-24T05:57:05.545Z,12.92
2023-03-24T05:59:53.298Z,14.60
2023-03-24T06:02:40.713Z,15.78
2023-03-24T06:05:22.039Z,17.31
2023-03-24T06:07:49.433Z,18.26
2023-03-24T06:10:18.413Z,18.60
2023-03-24T06:12:50.589Z,18.70
2023-03-24T06:15:18.110Z,16.67
2023-03-24T06:17:47.987Z,18.48
2023-03-24T06:20:26.142Z,19.68
2023-03-24T06:23:02.816Z,22.07
2023-03-24T06:25:44.989Z,22.46
2023-03-24T06:28:22.066Z,23.14
2023-03-24T06:30:50.485Z,24.48
2023-03-24T06:33:26.042Z,23.24
2023-03-24T06:35:54.254Z,23.18
2023-03-24T06:38:22.387Z,23.18
2023-03-24T06:40:49.606Z,21.19
2023-03-24T06:43:16.587Z,22.09
2023-03-24T06:45:45.989Z,22.72
2023-03-24T06:48:19.628Z,22.64
2023-03-24T06:50:47.449Z,24.19
2023-03-24T06:53:16.660Z,22.77
2023-03-24T06:55:43.962Z,24.58
2023-03-24T06:58:13.772Z,23.65
2023-03-24T07:00:48.528Z,22.58
2023-03-24T07:03:26.911Z,24.35
2023-03-24T07:06:12.662Z,23.89
2023-03-24T07:08:40.772Z,21.64
2023-03-24T07:11:09.901Z,21.59
2023-03-24T07:13:40.190Z,19.37
2023-03-24T07:16:08.395Z,20.76
2023-03-24T07:18:38.057Z,20.33
2023-03-24T07:21:07.542Z,19.56
2023-03-24T07:23:35.867Z,18.91
2023-03-24T07:26:11.216Z,22.08
2023-03-24T07:28:41.080Z,24.16
2023-03-24T07:31:11.039Z,25.49
2023-03-24T07:33:40.013Z,24.38
2023-03-24T07:36:08.824Z,22.63
2023-03-24T07:38:38.089Z,22.60
2023-03-24T07:41:09.377Z,21.99
2023-03-24T07:43:40.566Z,22.25
2023-03-24T07:46:18.785Z,23.55
2023-03-24T07:48:45.961Z,24.41
2023-03-24T07:51:13.155Z,24.82
2023-03-24T07:54:15.633Z,24.24
2023-03-24T07:56:46.832Z,24.94
2023-03-24T07:59:14.035Z,25.03
2023-03-24T08:01:52.598Z,24.33
2023-03-24T08:04:34.199Z,23.31
2023-03-24T08:07:08.470Z,23.62
2023-03-24T08:09:35.446Z,22.91
2023-03-24T08:12:13.512Z,23.40
2023-03-24T08:14:47.097Z,23.70
2023-03-24T08:17:14.060Z,23.47
2023-03-24T08:19:56.132Z,24.38
2023-03-24T08:22:27.426Z,25.69
2023-03-24T08:24:54.439Z,26.32
2023-03-24T08:27:21.633Z,25.74
2023-03-24T08:29:48.629Z,25.83
2023-03-24T08:32:15.695Z,23.93
2023-03-24T08:34:42.674Z,24.69
2023-03-24T08:37:12.008Z,24.52
2023-03-24T08:39:39.007Z,26.02
2023-03-24T08:42:06.102Z,25.88
2023-03-24T08:44:33.250Z,26.97
2023-03-24T08:47:03.748Z,30.46
2023-03-24T08:49:30.779Z,30.15
2023-03-24T08:51:57.760Z,28.64
2023-03-24T08:54:24.994Z,27.83
2023-03-24T08:56:52.572Z,28.86
2023-03-24T08:59:19.575Z,26.81
2023-03-24T09:01:46.649Z,25.91
2023-03-24T09:04:13.780Z,27.40
2023-03-24T09:06:40.837Z,25.72
2023-03-24T09:09:08.072Z,25.18
2023-03-24T09:11:36.695Z,24.21
2023-03-24T09:14:05.071Z,21.88
2023-03-24T09:16:32.145Z,22.29
2023-03-24T09:18:59.212Z,22.20
2023-03-24T09:21:26.330Z,22.00
2023-03-24T09:23:53.253Z,22.22
2023-03-24T09:26:20.383Z,24.36
2023-03-24T09:28:47.685Z,23.91
2023-03-24T09:31:16.150Z,22.28
2023-03-24T09:33:43.133Z,22.24
2023-03-24T09:36:11.179Z,20.93
2023-03-24T09:38:38.234Z,22.07
2023-03-24T09:41:14.815Z,21.35
2023-03-24T09:43:50.205Z,21.71
2023-03-24T09:46:36.698Z,21.58
2023-03-24T09:49:04.885Z,21.27
2023-03-24T09:51:44.015Z,20.70
2023-03-24T09:54:38.327Z,21.19
2023-03-24T09:57:11.439Z,21.55
2023-03-24T09:59:40.591Z,20.93
2023-03-24T10:02:19.283Z,20.36
2023-03-24T10:04:46.780Z,19.68
2023-03-24T10:07:37.634Z,19.64
2023-03-24T10:10:22.219Z,20.34
2023-03-24T10:12:49.767Z,19.95
2023-03-24T10:15:46.802Z,19.74
2023-03-24T10:18:19.785Z,20.15
2023-03-24T10:21:04.569Z,20.66
2023-03-24T10:23:34.362Z,20.63
2023-03-24T10:26:04.957Z,19.94
2023-03-24T10:28:52.602Z,22.23
2023-03-24T10:31:29.712Z,22.40
2023-03-24T10:33:57.196Z,20.08
2023-03-24T10:36:25.392Z,20.12
2023-03-24T10:38:52.715Z,19.79
2023-03-24T10:41:25.728Z,19.74
2023-03-24T10:43:55.166Z,19.90
2023-03-24T10:46:26.317Z,19.05
2023-03-24T10:49:06.690Z,19.23
2023-03-24T10:51:36.889Z,19.38
2023-03-24T10:54:27.138Z,19.24
2023-03-24T10:57:03.825Z,18.92
2023-03-24T10:59:36.452Z,19.00
2023-03-24T11:02:09.763Z,20.35
2023-03-24T11:04:49.606Z,19.61
2023-03-24T11:07:20.946Z,20.21
2023-03-24T11:09:58.299Z,20.81
2023-03-24T11:12:28.757Z,19.32
2023-03-24T11:15:29.190Z,18.81
2023-03-24T11:18:01.653Z,18.46
2023-03-24T11:20:34.166Z,18.47
2023-03-24T11:23:39.950Z,18.42
2023-03-24T11:26:20.109Z,18.75
2023-03-24T11:28:52.792Z,19.68
2023-03-24T11:31:30.780Z,19.79
2023-03-24T11:34:00.816Z,18.64
2023-03-24T11:36:31.003Z,18.22
2023-03-24T11:39:17.990Z,18.15
2023-03-24T11:42:02.854Z,18.47
2023-03-24T11:44:44.623Z,18.53
2023-03-24T11:47:24.442Z,18.26
2023-03-24T11:49:58.799Z,18.70
2023-03-24T11:52:31.978Z,18.55
2023-03-24T11:54:59.055Z,19.48
2023-03-24T11:57:47.876Z,19.72
2023-03-24T12:00:27.527Z,19.22
2023-03-24T12:03:08.490Z,19.99
2023-03-24T12:05:44.519Z,20.40
2023-03-24T12:08:17.834Z,21.50
2023-03-24T12:11:19.392Z,21.71
2023-03-24T12:13:49.820Z,18.33
2023-03-24T12:16:28.577Z,18.26
2023-03-24T12:18:58.359Z,18.60
2023-03-24T12:21:31.396Z,18.43
2023-03-24T12:24:06.199Z,19.57
2023-03-24T12:26:34.535Z,18.91
2023-03-24T12:29:24.067Z,17.84
2023-03-24T12:32:00.126Z,17.65
2023-03-24T12:34:56.341Z,17.58
2023-03-24T12:37:29.027Z,18.69
2023-03-24T12:40:16.545Z,18.60
2023-03-24T12:42:45.736Z,18.32
2023-03-24T12:45:15.838Z,18.31
2023-03-24T12:47:48.676Z,17.42
2023-03-24T12:50:41.290Z,17.67
2023-03-24T12:53:25.872Z,17.96
2023-03-24T12:56:05.233Z,17.93
2023-03-24T12:58:44.275Z,18.38
2023-03-24T13:01:20.931Z,17.66
2023-03-24T13:03:54.268Z,17.90
2023-03-24T13:06:32.434Z,17.91
2023-03-24T13:09:31.558Z,18.62
2023-03-24T13:12:48.957Z,18.59
2023-03-24T13:15:21.235Z,17.24
2023-03-24T13:17:57.570Z,17.31
2023-03-24T13:20:27.459Z,16.90
2023-03-24T13:22:55.915Z,16.33
2023-03-24T13:25:37.726Z,16.33
2023-03-24T13:28:13.307Z,15.85
2023-03-24T13:30:43.800Z,17.02
2023-03-24T13:33:21.888Z,16.59
2023-03-24T13:36:07.994Z,16.17
2023-03-24T13:38:44.847Z,15.58
2023-03-24T13:41:18.349Z,15.49
2023-03-24T13:43:51.147Z,15.61
2023-03-24T13:46:18.749Z,15.24
2023-03-24T13:48:52.074Z,15.57
2023-03-24T13:51:43.858Z,15.60
2023-03-24T13:54:31.613Z,15.42
2023-03-24T13:57:01.495Z,15.11
2023-03-24T14:00:16.542Z,14.53
2023-03-24T14:02:54.220Z,14.49
2023-03-24T14:05:26.904Z,14.32
2023-03-24T14:08:16.064Z,14.73
2023-03-24T14:10:50.537Z,15.39
2023-03-24T14:13:17.480Z,14.69
2023-03-24T14:15:58.100Z,14.93
2023-03-24T14:18:25.672Z,15.08
2023-03-24T14:20:56.410Z,14.46
2023-03-24T14:23:42.148Z,14.34
2023-03-24T14:26:15.677Z,14.24
2023-03-24T14:28:44.044Z,14.01
2023-03-24T14:31:15.776Z,13.78
2023-03-24T14:34:02.527Z,14.07
2023-03-24T14:36:39.449Z,14.11
2023-03-24T14:39:29.793Z,14.57
2023-03-24T14:41:59.037Z,15.29
2023-03-24T14:44:56.819Z,14.51
2023-03-24T14:47:26.483Z,14.47
2023-03-24T14:49:57.242Z,13.63
2023-03-24T14:52:26.329Z,13.44
2023-03-24T14:55:01.061Z,13.68
2023-03-24T14:57:31.554Z,13.75
2023-03-24T15:00:36.103Z,13.04
2023-03-24T15:03:18.846Z,13.33
2023-03-24T15:05:46.034Z,13.98
2023-03-24T15:08:20.805Z,14.30
2023-03-24T15:11:09.726Z,13.20
2023-03-24T15:14:05.063Z,13.38
2023-03-24T15:16:35.758Z,13.37
2023-03-24T15:19:18.834Z,12.75
2023-03-24T15:21:49.998Z,12.66
2023-03-24T15:24:23.174Z,13.09
2023-03-24T15:26:53.702Z,12.87
2023-03-24T15:29:20.862Z,13.03
2023-03-24T15:31:49.578Z,12.65
2023-03-24T15:34:36.143Z,13.19
2023-03-24T15:37:05.520Z,13.55
2023-03-24T15:39:37.685Z,13.22
2023-03-24T15:42:14.728Z,12.36
2023-03-24T15:44:41.932Z,13.04
2023-03-24T15:47:27.635Z,13.04
2023-03-24T15:49:57.221Z,13.57
2023-03-24T15:52:31.779Z,12.78
2023-03-24T15:55:02.133Z,13.08
2023-03-24T15:57:37.369Z,13.06
2023-03-24T16:00:12.127Z,12.02
2023-03-24T16:02:54.378Z,11.64
2023-03-24T16:05:25.401Z,11.83
2023-03-24T16:08:01.004Z,12.37
2023-03-24T16:10:32.630Z,11.52
2023-03-24T16:13:26.322Z,11.76
2023-03-24T16:15:58.965Z,10.72
2023-03-24T16:18:34.684Z,11.26
2023-03-24T16:21:03.344Z,11.12
2023-03-24T16:23:31.266Z,11.09
2023-03-24T16:25:58.201Z,10.96
2023-03-24T16:28:25.347Z,11.13
2023-03-24T16:31:01.506Z,10.61
2023-03-24T16:33:30.475Z,10.92
2023-03-24T16:35:57.576Z,10.98
2023-03-24T16:38:25.880Z,11.22
2023-03-24T16:40:55.085Z,10.97
2023-03-24T16:43:22.405Z,11.11
2023-03-24T16:45:51.134Z,11.66
2023-03-24T16:48:18.458Z,11.78
2023-03-24T16:50:50.536Z,11.56
2023-03-24T16:53:18.961Z,10.87
2023-03-24T16:55:46.975Z,11.13
2023-03-24T16:58:19.058Z,11.12
2023-03-24T17:00:49.323Z,10.68
2023-03-24T17:03:18.190Z,10.20
2023-03-24T17:05:49.469Z,10.27
2023-03-24T17:08:18.772Z,10.02
2023-03-24T17:10:51.571Z,9.58
2023-03-24T17:13:21.190Z,9.58
2023-03-24T17:15:48.597Z,9.70
2023-03-24T17:18:16.450Z,10.15
2023-03-24T17:20:43.483Z,9.59
2023-03-24T17:23:11.906Z,9.79
2023-03-24T17:25:38.933Z,10.16
2023-03-24T17:28:16.524Z,10.26
2023-03-24T17:30:44.579Z,10.35
2023-03-24T17:33:15.115Z,10.31
2023-03-24T17:35:46.746Z,10.12
2023-03-24T17:38:16.845Z,10.57
2023-03-24T17:40:46.583Z,10.57
2023-03-24T17:43:13.869Z,10.84
2023-03-24T17:45:41.684Z,10.86
2023-03-24T17:48:08.658Z,10.98
2023-03-24T17:50:36.088Z,10.79
2023-03-24T17:53:03.247Z,11.06
2023-03-24T17:55:30.322Z,11.01
2023-03-24T17:57:57.300Z,10.91
2023-03-24T18:00:24.337Z,10.95
2023-03-24T18:02:52.811Z,11.03
2023-03-24T18:05:20.092Z,10.99
2023-03-24T18:07:47.329Z,10.95
2023-03-24T18:10:15.301Z,10.59
2023-03-24T18:12:42.272Z,10.54
2023-03-24T18:15:09.715Z,10.57
2023-03-24T18:17:36.772Z,10.75
2023-03-24T18:20:09.968Z,10.71
2023-03-24T18:22:41.108Z,10.77
2023-03-24T18:25:10.594Z,10.95
2023-03-24T18:27:38.150Z,10.96
2023-03-24T18:30:07.135Z,10.71
2023-03-24T18:32:36.090Z,10.57
2023-03-24T18:35:03.103Z,10.73
2023-03-24T18:37:30.028Z,10.80
2023-03-24T18:39:56.956Z,10.84
2023-03-24T18:42:23.878Z,11.00
2023-03-24T18:44:50.988Z,10.83
2023-03-24T18:47:18.660Z,10.74
2023-03-24T18:49:45.759Z,10.81
2023-03-24T18:52:14.995Z,10.49
2023-03-24T18:54:41.989Z,10.12
2023-03-24T18:57:09.258Z,10.45
2023-03-24T18:59:36.252Z,10.02
2023-03-24T19:02:03.513Z,9.87
2023-03-24T19:04:31.029Z,9.84
2023-03-24T19:07:00.670Z,9.82
2023-03-24T19:09:29.019Z,9.75
2023-03-24T19:11:56.161Z,9.92
2023-03-24T19:14:25.358Z,10.13
2023-03-24T19:16:52.350Z,9.90
2023-03-24T19:19:20.552Z,9.91
2023-03-24T19:21:47.726Z,9.78
2023-03-24T19:24:14.706Z,9.77
2023-03-24T19:26:41.645Z,10.11
2023-03-24T19:29:08.608Z,10.11
2023-03-24T19:31:35.669Z,9.90
2023-03-24T19:34:02.633Z,9.83
2023-03-24T19:36:29.597Z,9.89
2023-03-24T19:38:57.014Z,9.91
2023-03-24T19:41:26.470Z,10.12
2023-03-24T19:43:53.589Z,10.25
2023-03-24T19:46:21.285Z,10.01
2023-03-24T19:48:48.544Z,10.11
2023-03-24T19:51:15.671Z,10.00
2023-03-24T19:53:42.637Z,10.04
2023-03-24T19:56:09.752Z,10.30
2023-03-24T19:58:36.729Z,10.01
2023-03-24T20:01:03.948Z,10.03
2023-03-24T20:03:31.066Z,9.65
2023-03-24T20:06:04.100Z,9.65
2023-03-24T20:08:31.199Z,9.91
2023-03-24T20:10:58.127Z,9.73
2023-03-24T20:13:25.936Z,9.77
2023-03-24T20:15:53.328Z,10.07
2023-03-24T20:18:20.646Z,10.10
2023-03-24T20:20:47.607Z,10.07
2023-03-24T20:23:14.554Z,10.28
2023-03-24T20:25:42.971Z,10.35
2023-03-24T20:28:10.057Z,10.32
2023-03-24T20:30:37.007Z,10.37
2023-03-24T20:33:04.193Z,10.29
2023-03-24T20:35:31.717Z,10.06
2023-03-24T20:37:59.333Z,10.07
2023-03-24T20:40:26.451Z,9.89
2023-03-24T20:42:54.038Z,9.86
2023-03-24T20:45:21.201Z,9.88
2023-03-24T20:47:48.261Z,10.15
2023-03-24T20:50:15.407Z,10.15
2023-03-24T20:52:42.435Z,10.45
2023-03-24T20:55:11.547Z,10.68
2023-03-24T20:57:38.542Z,10.68
2023-03-24T21:00:13.602Z,10.51
2023-03-24T21:19:11.381Z,10.77
2023-03-24T21:21:38.459Z,10.57
2023-03-24T21:24:06.158Z,10.11
2023-03-24T21:26:33.127Z,10.29
2023-03-24T21:29:00.129Z,10.49
2023-03-24T21:53:35.029Z,8.57
2023-03-24T21:56:04.961Z,8.39
2023-03-24T21:58:33.652Z,8.20
2023-03-24T22:01:01.526Z,8.32
2023-03-24T22:03:28.790Z,8.57
2023-03-24T22:05:57.460Z,8.54
2023-03-24T22:08:26.992Z,8.58
2023-03-24T22:10:58.431Z,8.72
2023-03-24T22:13:29.280Z,8.68
2023-03-24T22:15:58.821Z,8.84
2023-03-24T22:18:28.106Z,9.08
2023-03-24T22:21:04.443Z,9.06
2023-03-24T22:23:33.597Z,8.93
2023-03-24T22:26:04.116Z,9.07
2023-03-24T22:28:33.801Z,8.80
2023-03-24T22:31:02.510Z,8.91
2023-03-24T22:33:30.251Z,8.65
2023-03-24T22:35:58.888Z,8.60
2023-03-24T22:38:27.242Z,8.64
2023-03-24T22:41:03.855Z,8.77
2023-03-24T22:43:31.598Z,9.09
2023-03-24T22:45:59.078Z,9.12
2023-03-24T22:48:26.125Z,9.13
2023-03-24T22:50:53.725Z,9.14
2023-03-24T22:53:20.647Z,8.96
2023-03-24T22:55:47.929Z,9.14
2023-03-24T22:58:15.581Z,9.16
2023-03-24T23:00:44.220Z,9.27
2023-03-24T23:03:11.979Z,8.94
2023-03-24T23:05:44.036Z,8.83
2023-03-24T23:08:14.255Z,9.14
2023-03-24T23:10:43.247Z,9.13
2023-03-24T23:13:11.942Z,8.83
2023-03-24T23:15:40.171Z,8.80
2023-03-24T23:18:07.335Z,8.76
2023-03-24T23:20:34.607Z,8.70
2023-03-24T23:23:02.845Z,8.79
2023-03-24T23:25:31.962Z,8.75
2023-03-24T23:27:59.210Z,8.65
2023-03-24T23:30:26.402Z,8.60
2023-03-24T23:32:53.759Z,8.78
2023-03-24T23:35:20.963Z,8.81
2023-03-24T23:37:48.472Z,8.79
2023-03-24T23:40:16.720Z,8.58
2023-03-24T23:42:48.367Z,8.81
2023-03-24T23:45:18.449Z,8.94
2023-03-24T23:47:50.834Z,8.98
2023-03-24T23:50:19.819Z,9.10
2023-03-24T23:52:47.304Z,9.04
2023-03-24T23:55:18.018Z,8.98
2023-03-24T23:57:45.583Z,9.05
